createdAt,value
2019-02-18T00:00:43.693Z,47.10
2019-02-18T00:03:13.030Z,43.10
2019-02-18T00:05:42.870Z,43.63
2019-02-18T00:08:12.217Z,48.53
2019-02-18T00:10:41.775Z,44.93
2019-02-18T00:13:11.233Z,42.53
2019-02-18T00:15:40.667Z,41.47
2019-02-18T00:18:10.018Z,42.80
2019-02-18T00:20:39.497Z,46.07
2019-02-18T00:23:08.892Z,44.60
2019-02-18T00:25:38.218Z,45.33
2019-02-18T00:28:07.685Z,41.90
2019-02-18T00:30:37.038Z,45.00
2019-02-18T00:33:06.464Z,42.20
2019-02-18T00:35:35.839Z,42.70
2019-02-18T00:38:05.243Z,46.40
2019-02-18T00:40:34.662Z,42.60
2019-02-18T00:43:04.102Z,48.60
2019-02-18T00:45:33.480Z,42.30
2019-02-18T00:48:02.934Z,46.27
2019-02-18T00:50:32.294Z,43.30
2019-02-18T00:53:03.933Z,43.33
2019-02-18T00:55:32.799Z,50.30
2019-02-18T00:58:02.239Z,46.10
2019-02-18T01:00:31.654Z,41.90
2019-02-18T01:03:00.989Z,43.53
2019-02-18T01:05:30.441Z,41.93
2019-02-18T01:07:59.950Z,46.70
2019-02-18T01:10:29.448Z,49.23
2019-02-18T01:12:58.806Z,47.03
2019-02-18T01:15:28.256Z,47.23
2019-02-18T01:17:57.615Z,51.43
2019-02-18T01:20:27.465Z,53.63
2019-02-18T01:22:56.824Z,54.43
2019-02-18T01:25:26.282Z,46.87
2019-02-18T01:27:55.823Z,55.93
2019-02-18T01:30:25.223Z,53.23
2019-02-18T01:32:54.524Z,57.27
2019-02-18T01:35:24.042Z,48.70
2019-02-18T01:37:53.482Z,55.70
2019-02-18T01:40:22.920Z,50.97
2019-02-18T01:42:52.282Z,53.90
2019-02-18T01:45:21.803Z,51.03
2019-02-18T01:47:51.351Z,54.40
2019-02-18T01:50:20.751Z,62.53
2019-02-18T01:52:50.157Z,57.50
2019-02-18T01:55:19.609Z,57.17
2019-02-18T01:57:49.052Z,58.77
2019-02-18T02:00:18.356Z,57.93
2019-02-18T02:02:47.778Z,55.47
2019-02-18T02:05:17.503Z,57.50
2019-02-18T02:07:55.965Z,56.77
2019-02-18T02:10:17.975Z,57.27
2019-02-18T02:12:47.313Z,59.13
2019-02-18T02:15:20.357Z,62.63
2019-02-18T02:17:49.708Z,56.57
2019-02-18T02:20:19.302Z,59.07
2019-02-18T02:22:48.701Z,59.17
2019-02-18T02:25:18.016Z,59.83
2019-02-18T02:27:47.510Z,59.83
2019-02-18T02:30:17.027Z,58.83
2019-02-18T02:32:46.437Z,60.63
2019-02-18T02:35:15.786Z,62.30
2019-02-18T02:37:45.419Z,63.20
2019-02-18T02:40:14.809Z,64.17
2019-02-18T02:42:44.330Z,67.00
2019-02-18T02:45:13.934Z,64.67
2019-02-18T02:47:43.354Z,62.23
2019-02-18T02:50:12.799Z,57.57
2019-02-18T02:52:42.159Z,62.70
2019-02-18T02:55:11.610Z,63.03
2019-02-18T02:57:40.974Z,58.63
2019-02-18T03:00:10.954Z,54.07
2019-02-18T03:02:40.254Z,62.13
2019-02-18T03:05:09.970Z,60.63
2019-02-18T03:07:39.385Z,54.90
2019-02-18T03:10:08.839Z,56.93
2019-02-18T03:12:38.227Z,66.73
2019-02-18T03:15:07.919Z,55.60
2019-02-18T03:17:37.340Z,60.30
2019-02-18T03:20:07.264Z,59.57
2019-02-18T03:22:36.780Z,62.53
2019-02-18T03:25:28.535Z,61.63
2019-02-18T03:28:01.571Z,63.70
2019-02-18T03:30:49.817Z,64.93
2019-02-18T03:33:22.848Z,68.77
2019-02-18T03:35:52.309Z,61.73
2019-02-18T03:38:31.226Z,67.87
2019-02-18T03:41:02.788Z,67.53
2019-02-18T03:43:24.110Z,69.33
2019-02-18T03:45:53.545Z,69.40
2019-02-18T03:48:22.847Z,71.57
2019-02-18T03:50:53.250Z,75.00
2019-02-18T03:53:22.710Z,71.57
2019-02-18T03:55:52.131Z,73.70
2019-02-18T03:58:21.687Z,78.23
2019-02-18T04:00:51.410Z,81.40
2019-02-18T04:03:20.845Z,81.53
2019-02-18T04:05:50.369Z,81.33
2019-02-18T04:08:19.693Z,93.00
2019-02-18T04:10:49.069Z,82.63
2019-02-18T04:13:18.490Z,82.73
2019-02-18T04:15:48.271Z,84.37
2019-02-18T04:18:17.618Z,91.33
2019-02-18T04:20:47.023Z,90.87
2019-02-18T04:23:16.500Z,87.67
2019-02-18T04:25:46.132Z,88.13
2019-02-18T04:28:15.597Z,85.27
2019-02-18T04:30:44.994Z,85.10
2019-02-18T04:33:14.351Z,82.53
2019-02-18T04:35:43.789Z,80.90
2019-02-18T04:38:13.224Z,88.27
2019-02-18T04:40:42.589Z,89.53
2019-02-18T04:43:12.021Z,93.37
2019-02-18T04:45:41.398Z,94.30
2019-02-18T04:48:10.753Z,91.23
2019-02-18T04:50:40.193Z,92.13
2019-02-18T04:53:09.586Z,89.90
2019-02-18T04:55:39.278Z,86.57
2019-02-18T04:58:08.726Z,94.10
2019-02-18T05:00:38.217Z,89.57
2019-02-18T05:03:07.595Z,95.13
2019-02-18T05:05:36.959Z,99.77
2019-02-18T05:08:06.348Z,101.73
2019-02-18T05:10:35.786Z,114.13
2019-02-18T05:13:05.224Z,107.30
2019-02-18T05:15:34.615Z,93.77
2019-02-18T05:18:03.977Z,94.37
2019-02-18T05:20:33.439Z,100.57
2019-02-18T05:23:02.897Z,91.90
2019-02-18T05:25:32.282Z,98.27
2019-02-18T05:28:01.699Z,128.93
2019-02-18T05:30:31.151Z,104.73
2019-02-18T05:33:00.549Z,133.30
2019-02-18T05:35:29.978Z,130.03
2019-02-18T05:37:59.303Z,143.37
2019-02-18T05:40:28.652Z,122.40
2019-02-18T05:42:58.066Z,142.37
2019-02-18T05:45:28.475Z,110.97
2019-02-18T05:47:57.813Z,113.00
2019-02-18T05:50:27.200Z,112.07
2019-02-18T05:52:56.588Z,115.57
2019-02-18T05:55:25.863Z,120.53
2019-02-18T05:57:55.359Z,105.23
2019-02-18T06:00:24.800Z,116.87
2019-02-18T06:02:54.366Z,113.30
2019-02-18T06:05:24.067Z,112.20
2019-02-18T06:07:53.459Z,113.03
2019-02-18T06:10:22.897Z,111.70
2019-02-18T06:12:52.250Z,110.67
2019-02-18T06:15:21.718Z,133.80
2019-02-18T06:17:51.056Z,124.50
2019-02-18T06:20:20.507Z,119.03
2019-02-18T06:22:49.941Z,116.57
2019-02-18T06:25:19.371Z,107.63
2019-02-18T06:27:51.469Z,106.57
2019-02-18T06:30:20.019Z,103.30
2019-02-18T06:32:49.402Z,110.50
2019-02-18T06:35:18.770Z,116.97
2019-02-18T06:37:48.176Z,108.73
2019-02-18T06:40:17.867Z,106.87
2019-02-18T06:42:47.270Z,119.63
2019-02-18T06:45:35.655Z,115.57
2019-02-18T06:48:26.675Z,107.07
2019-02-18T06:50:56.032Z,113.23
2019-02-18T06:53:25.483Z,115.10
2019-02-18T06:55:54.941Z,116.87
2019-02-18T06:58:42.398Z,113.33
2019-02-18T07:01:29.708Z,100.07
2019-02-18T07:04:17.133Z,106.07
2019-02-18T07:07:02.159Z,112.33
2019-02-18T07:09:50.430Z,109.87
2019-02-18T07:12:18.769Z,105.93
2019-02-18T07:14:48.144Z,111.00
2019-02-18T07:17:17.610Z,114.00
2019-02-18T07:19:46.959Z,112.53
2019-02-18T07:22:16.409Z,105.37
2019-02-18T07:24:45.766Z,108.40
2019-02-18T07:27:15.226Z,103.87
2019-02-18T07:29:44.610Z,101.43
2019-02-18T07:32:13.948Z,99.23
2019-02-18T07:34:43.254Z,110.97
2019-02-18T07:37:12.719Z,106.80
2019-02-18T07:39:42.095Z,105.43
2019-02-18T07:42:11.514Z,95.07
2019-02-18T07:44:40.866Z,115.77
2019-02-18T07:47:10.350Z,107.47
2019-02-18T07:49:39.662Z,110.87
2019-02-18T07:52:09.151Z,111.60
2019-02-18T07:54:38.533Z,120.90
2019-02-18T07:57:07.934Z,111.63
2019-02-18T07:59:37.378Z,116.17
2019-02-18T08:02:06.817Z,122.87
2019-02-18T08:04:36.175Z,112.43
2019-02-18T08:07:05.681Z,99.73
2019-02-18T08:09:35.087Z,124.00
2019-02-18T08:12:04.482Z,114.47
2019-02-18T08:14:34.090Z,110.90
2019-02-18T08:17:03.498Z,120.80
2019-02-18T08:19:32.970Z,124.97
2019-02-18T08:22:02.344Z,122.63
2019-02-18T08:24:31.808Z,99.57
2019-02-18T08:27:01.278Z,95.50
2019-02-18T08:29:30.760Z,88.50
2019-02-18T08:32:00.171Z,87.27
2019-02-18T08:34:29.619Z,99.83
2019-02-18T08:36:59.119Z,95.80
2019-02-18T08:39:28.569Z,95.97
2019-02-18T08:41:58.158Z,86.37
2019-02-18T08:44:27.496Z,91.53
2019-02-18T08:46:56.831Z,82.83
2019-02-18T08:49:26.396Z,81.40
2019-02-18T08:51:55.788Z,78.63
2019-02-18T08:54:25.126Z,71.30
2019-02-18T08:56:54.580Z,83.07
2019-02-18T08:59:23.939Z,81.33
2019-02-18T09:01:53.401Z,84.73
2019-02-18T09:04:22.945Z,79.93
2019-02-18T09:06:52.353Z,78.27
2019-02-18T09:09:21.867Z,74.37
2019-02-18T09:11:51.306Z,66.80
2019-02-18T09:14:20.702Z,70.03
2019-02-18T09:16:50.121Z,63.23
2019-02-18T09:19:19.454Z,70.13
2019-02-18T09:21:50.390Z,63.93
2019-02-18T09:24:27.234Z,68.03
2019-02-18T09:26:56.786Z,63.30
2019-02-18T09:29:26.185Z,58.10
2019-02-18T09:31:55.638Z,61.70
2019-02-18T09:34:25.013Z,60.20
2019-02-18T09:36:56.126Z,59.33
2019-02-18T09:39:31.133Z,62.20
2019-02-18T09:41:56.893Z,57.77
2019-02-18T09:44:26.346Z,53.53
2019-02-18T09:46:55.711Z,50.00
2019-02-18T09:49:25.178Z,57.70
2019-02-18T09:51:54.482Z,55.07
2019-02-18T09:54:24.007Z,55.03
2019-02-18T09:56:53.527Z,60.63
2019-02-18T09:59:22.898Z,53.93
2019-02-18T10:01:52.350Z,50.00
2019-02-18T10:04:22.693Z,62.30
2019-02-18T10:06:52.162Z,52.00
2019-02-18T10:09:21.630Z,43.53
2019-02-18T10:11:51.035Z,48.47
2019-02-18T10:14:20.439Z,48.67
2019-02-18T10:16:50.038Z,39.23
2019-02-18T10:19:19.444Z,48.70
2019-02-18T10:21:49.954Z,44.93
2019-02-18T10:24:19.484Z,42.90
2019-02-18T10:26:48.948Z,44.07
2019-02-18T10:29:18.288Z,43.20
2019-02-18T10:31:47.739Z,40.70
2019-02-18T10:34:17.180Z,46.80
2019-02-18T10:36:46.584Z,37.60
2019-02-18T10:39:15.994Z,31.07
2019-02-18T10:41:45.458Z,35.53
2019-02-18T10:44:14.867Z,34.60
2019-02-18T10:46:44.333Z,33.20
2019-02-18T10:49:19.703Z,21.20
2019-02-18T10:51:45.030Z,28.47
2019-02-18T10:54:14.605Z,20.23
2019-02-18T10:56:44.103Z,22.30
2019-02-18T10:59:13.506Z,20.50
2019-02-18T11:01:42.954Z,23.93
2019-02-18T11:04:13.499Z,30.23
2019-02-18T11:06:42.980Z,33.23
2019-02-18T11:09:12.446Z,26.60
2019-02-18T11:11:41.799Z,26.10
2019-02-18T11:14:11.269Z,30.03
2019-02-18T11:16:41.010Z,30.00
2019-02-18T11:19:10.449Z,29.73
2019-02-18T11:21:39.813Z,29.00
2019-02-18T11:24:09.282Z,25.37
2019-02-18T11:26:38.670Z,27.43
2019-02-18T11:29:08.634Z,25.43
2019-02-18T11:31:38.033Z,25.03
2019-02-18T11:34:07.488Z,28.63
2019-02-18T11:36:36.937Z,23.80
2019-02-18T11:39:13.255Z,27.10
2019-02-18T11:41:43.117Z,22.73
2019-02-18T11:44:12.576Z,28.93
2019-02-18T11:46:42.122Z,22.40
2019-02-18T11:49:11.551Z,20.43
2019-02-18T11:51:41.034Z,20.27
2019-02-18T11:54:10.505Z,27.53
2019-02-18T11:56:39.945Z,21.90
2019-02-18T11:59:09.378Z,27.53
2019-02-18T12:01:38.738Z,19.47
2019-02-18T12:04:08.195Z,26.10
2019-02-18T12:06:40.159Z,28.10
2019-02-18T12:09:09.906Z,28.37
2019-02-18T12:11:39.352Z,24.57
2019-02-18T12:14:08.913Z,26.07
2019-02-18T12:16:38.323Z,26.50
2019-02-18T12:19:07.762Z,32.03
2019-02-18T12:21:37.275Z,25.33
2019-02-18T12:24:06.855Z,28.67
2019-02-18T12:26:36.390Z,26.17
2019-02-18T12:29:05.850Z,24.87
2019-02-18T12:31:35.336Z,26.73
2019-02-18T12:34:04.758Z,27.10
2019-02-18T12:36:34.205Z,27.83
2019-02-18T12:39:05.124Z,29.80
2019-02-18T12:41:34.558Z,24.93
2019-02-18T12:44:04.091Z,27.07
2019-02-18T12:46:33.453Z,28.63
2019-02-18T12:49:02.955Z,24.73
2019-02-18T12:51:32.460Z,28.07
2019-02-18T12:54:09.412Z,22.50
2019-02-18T12:56:33.315Z,26.33
2019-02-18T12:59:02.751Z,28.60
2019-02-18T13:01:32.234Z,27.27
2019-02-18T13:04:01.668Z,36.23
2019-02-18T13:06:31.125Z,29.60
2019-02-18T13:09:00.616Z,28.07
2019-02-18T13:11:30.091Z,21.73
2019-02-18T13:13:59.520Z,22.03
2019-02-18T13:16:29.037Z,25.00
2019-02-18T13:18:58.495Z,27.20
2019-02-18T13:21:27.945Z,28.10
2019-02-18T13:23:57.596Z,27.30
2019-02-18T13:26:27.093Z,27.53
2019-02-18T13:28:56.910Z,27.77
2019-02-18T13:31:26.394Z,28.53
2019-02-18T13:33:55.834Z,24.10
2019-02-18T13:36:25.257Z,28.27
2019-02-18T13:38:54.632Z,35.03
2019-02-18T13:41:24.222Z,122.47
2019-02-18T13:43:53.943Z,50.70
2019-02-18T13:46:23.344Z,28.60
2019-02-18T13:48:52.798Z,37.47
2019-02-18T13:51:24.174Z,36.57
2019-02-18T13:53:53.345Z,42.80
2019-02-18T13:56:22.679Z,32.47
2019-02-18T13:58:52.378Z,26.67
2019-02-18T14:01:21.802Z,47.97
2019-02-18T14:03:51.200Z,38.90
2019-02-18T14:06:20.658Z,30.97
2019-02-18T14:08:50.311Z,26.77
2019-02-18T14:11:19.740Z,30.90
2019-02-18T14:13:49.231Z,25.93
2019-02-18T14:16:18.675Z,26.07
2019-02-18T14:18:48.167Z,25.27
2019-02-18T14:21:17.681Z,21.63
2019-02-18T14:23:47.190Z,29.63
2019-02-18T14:26:16.622Z,27.67
2019-02-18T14:28:46.046Z,29.23
2019-02-18T14:31:15.502Z,43.40
2019-02-18T14:33:44.989Z,128.40
2019-02-18T14:36:14.482Z,49.67
2019-02-18T14:38:44.028Z,45.87
2019-02-18T14:41:13.461Z,41.83
2019-02-18T14:43:42.917Z,28.17
2019-02-18T14:46:12.354Z,31.50
2019-02-18T14:48:41.835Z,29.63
2019-02-18T14:51:11.417Z,29.40
2019-02-18T14:53:40.913Z,35.87
2019-02-18T14:56:13.486Z,30.33
2019-02-18T14:58:44.918Z,36.80
2019-02-18T15:01:14.350Z,21.97
2019-02-18T15:03:43.862Z,28.23
2019-02-18T15:06:13.310Z,27.80
2019-02-18T15:08:42.749Z,28.23
2019-02-18T15:11:12.528Z,31.57
2019-02-18T15:13:41.980Z,32.10
2019-02-18T15:16:11.495Z,31.03
2019-02-18T15:18:40.930Z,32.30
2019-02-18T15:21:10.547Z,30.40
2019-02-18T15:23:39.957Z,25.57
2019-02-18T15:26:09.486Z,27.90
2019-02-18T15:28:39.007Z,29.63
2019-02-18T15:31:08.769Z,32.90
2019-02-18T15:33:38.198Z,35.83
2019-02-18T15:36:07.673Z,37.33
2019-02-18T15:38:37.079Z,29.87
2019-02-18T15:41:06.525Z,39.03
2019-02-18T15:43:36.039Z,38.97
2019-02-18T15:46:05.574Z,34.23
2019-02-18T15:48:36.404Z,37.60
2019-02-18T15:51:06.174Z,36.63
2019-02-18T15:53:35.994Z,35.67
2019-02-18T15:56:05.342Z,44.60
2019-02-18T15:58:34.809Z,34.33
2019-02-18T16:01:04.654Z,48.47
2019-02-18T16:03:34.073Z,40.60
2019-02-18T16:06:03.451Z,32.40
2019-02-18T16:08:33.226Z,39.17
2019-02-18T16:11:02.690Z,45.47
2019-02-18T16:13:32.282Z,40.00
2019-02-18T16:16:01.706Z,39.90
2019-02-18T16:18:31.407Z,41.93
2019-02-18T16:21:00.853Z,38.90
2019-02-18T16:23:30.816Z,43.83
2019-02-18T16:26:00.210Z,41.23
2019-02-18T16:28:29.705Z,42.53
2019-02-18T16:30:59.339Z,41.70
2019-02-18T16:33:28.826Z,41.37
2019-02-18T16:35:59.983Z,50.33
2019-02-18T16:38:29.366Z,43.17
2019-02-18T16:40:58.851Z,47.63
2019-02-18T16:43:28.690Z,48.83
2019-02-18T16:45:58.194Z,65.57
2019-02-18T16:48:28.128Z,53.90
2019-02-18T16:50:57.866Z,50.57
2019-02-18T16:53:27.423Z,55.60
2019-02-18T16:55:58.310Z,61.40
2019-02-18T16:58:29.768Z,55.30
2019-02-18T17:01:00.530Z,57.37
2019-02-18T17:03:30.034Z,67.87
2019-02-18T17:05:59.517Z,67.83
2019-02-18T17:08:28.970Z,69.30
2019-02-18T17:10:58.347Z,63.37
2019-02-18T17:13:27.836Z,59.17
2019-02-18T17:15:57.286Z,63.13
2019-02-18T17:18:26.841Z,71.67
2019-02-18T17:20:56.287Z,73.23
2019-02-18T17:23:25.740Z,79.47
2019-02-18T17:25:55.185Z,82.50
2019-02-18T17:28:24.668Z,96.53
2019-02-18T17:30:54.206Z,81.17
2019-02-18T17:33:23.594Z,83.27
2019-02-18T17:35:53.381Z,71.00
2019-02-18T17:38:22.821Z,74.60
2019-02-18T17:40:52.268Z,80.50
2019-02-18T17:43:21.718Z,81.13
2019-02-18T17:45:51.210Z,76.00
2019-02-18T17:48:20.625Z,91.67
2019-02-18T17:50:50.278Z,90.93
2019-02-18T17:53:19.793Z,95.90
2019-02-18T17:55:49.306Z,108.10
2019-02-18T17:58:18.742Z,101.50
2019-02-18T18:00:50.492Z,105.77
2019-02-18T18:03:19.898Z,100.37
2019-02-18T18:05:49.373Z,106.07
2019-02-18T18:08:18.829Z,100.20
2019-02-18T18:10:48.317Z,104.27
2019-02-18T18:13:24.934Z,105.27
2019-02-18T18:15:48.949Z,98.27
2019-02-18T18:18:18.720Z,102.47
2019-02-18T18:20:48.435Z,109.23
2019-02-18T18:23:17.941Z,104.97
2019-02-18T18:25:47.403Z,110.77
2019-02-18T18:28:16.966Z,103.57
2019-02-18T18:30:46.383Z,115.80
2019-02-18T18:33:16.173Z,112.97
2019-02-18T18:35:45.723Z,107.03
2019-02-18T18:38:15.213Z,120.43
2019-02-18T18:40:44.695Z,113.57
2019-02-18T18:43:14.167Z,113.53
2019-02-18T18:45:43.811Z,110.23
2019-02-18T18:48:13.424Z,113.00
2019-02-18T18:50:42.867Z,102.40
2019-02-18T18:53:12.345Z,101.77
2019-02-18T18:55:41.758Z,115.00
2019-02-18T18:58:11.431Z,106.20
2019-02-18T19:00:40.843Z,106.73
2019-02-18T19:03:10.344Z,109.63
2019-02-18T19:05:39.837Z,101.93
2019-02-18T19:08:09.311Z,99.47
2019-02-18T19:10:38.776Z,101.60
2019-02-18T19:13:08.200Z,103.27
2019-02-18T19:15:38.046Z,101.07
2019-02-18T19:18:07.442Z,106.07
2019-02-18T19:20:36.807Z,103.70
2019-02-18T19:23:06.234Z,100.37
2019-02-18T19:25:35.570Z,109.23
2019-02-18T19:28:05.041Z,102.90
2019-02-18T19:30:34.706Z,103.10
2019-02-18T19:33:04.138Z,102.47
2019-02-18T19:35:33.551Z,104.93
2019-02-18T19:38:03.042Z,120.17
2019-02-18T19:40:32.610Z,112.77
2019-02-18T19:43:02.218Z,109.67
2019-02-18T19:45:31.665Z,117.00
2019-02-18T19:48:01.018Z,109.80
2019-02-18T19:50:30.427Z,119.90
2019-02-18T19:52:59.869Z,119.83
2019-02-18T19:55:29.351Z,129.87
2019-02-18T19:57:59.257Z,130.00
2019-02-18T20:00:28.711Z,125.97
2019-02-18T20:02:58.139Z,117.47
2019-02-18T20:05:27.613Z,131.37
2019-02-18T20:07:56.970Z,133.43
2019-02-18T20:10:26.430Z,121.13
2019-02-18T20:12:56.207Z,123.40
2019-02-18T20:15:25.715Z,130.80
2019-02-18T20:17:55.194Z,127.67
2019-02-18T20:20:24.901Z,141.33
2019-02-18T20:22:54.277Z,133.17
2019-02-18T20:25:23.701Z,133.13
2019-02-18T20:27:53.134Z,142.93
2019-02-18T20:30:22.690Z,139.37
2019-02-18T20:32:52.193Z,148.90
2019-02-18T20:35:22.049Z,161.47
2019-02-18T20:37:51.473Z,161.17
2019-02-18T20:40:20.998Z,172.87
2019-02-18T20:42:50.513Z,161.97
2019-02-18T20:45:19.982Z,172.27
2019-02-18T20:47:49.321Z,175.13
2019-02-18T20:50:18.814Z,164.77
2019-02-18T20:52:48.406Z,169.50
2019-02-18T20:55:18.342Z,181.43
2019-02-18T20:57:47.817Z,173.23
2019-02-18T21:00:18.766Z,184.30
2019-02-18T21:02:48.222Z,181.30
2019-02-18T21:05:17.943Z,204.03
2019-02-18T21:07:47.486Z,189.03
2019-02-18T21:10:17.307Z,271.80
2019-02-18T21:12:46.787Z,212.43
2019-02-18T21:15:16.323Z,221.13
2019-02-18T21:17:45.741Z,228.67
2019-02-18T21:20:15.514Z,310.57
2019-02-18T21:22:44.927Z,257.13
2019-02-18T21:25:14.418Z,239.27
2019-02-18T21:27:43.835Z,226.30
2019-02-18T21:30:13.576Z,245.00
2019-02-18T21:32:43.071Z,239.67
2019-02-18T21:35:12.469Z,233.40
2019-02-18T21:37:42.223Z,224.90
2019-02-18T21:40:11.978Z,210.03
2019-02-18T21:42:41.463Z,203.33
2019-02-18T21:45:11.231Z,214.03
2019-02-18T21:47:40.746Z,225.83
2019-02-18T21:50:10.613Z,218.00
2019-02-18T21:52:40.336Z,209.93
2019-02-18T21:55:10.097Z,228.20
2019-02-18T21:57:39.532Z,244.33
2019-02-18T22:00:15.563Z,234.97
2019-02-18T22:02:45.044Z,281.73
2019-02-18T22:05:15.007Z,342.70
2019-02-18T22:07:44.510Z,354.70
2019-02-18T22:10:14.290Z,288.97
2019-02-18T22:12:44.017Z,332.93
2019-02-18T22:15:13.459Z,320.90
2019-02-18T22:17:42.882Z,309.70
2019-02-18T22:20:12.642Z,267.17
2019-02-18T22:22:42.080Z,224.47
2019-02-18T22:25:11.643Z,232.67
2019-02-18T22:27:41.060Z,217.23
2019-02-18T22:30:11.621Z,236.40
2019-02-18T22:32:41.082Z,248.67
2019-02-18T22:35:10.573Z,245.43
2019-02-18T22:37:40.271Z,234.73
2019-02-18T22:40:10.887Z,237.83
2019-02-18T22:42:40.248Z,235.80
2019-02-18T22:45:09.937Z,224.00
2019-02-18T22:47:39.342Z,223.93
2019-02-18T22:50:09.186Z,230.00
2019-02-18T22:52:38.758Z,244.83
2019-02-18T22:55:08.564Z,228.20
2019-02-18T22:57:38.041Z,234.83
2019-02-18T23:00:18.483Z,221.70
2019-02-18T23:02:48.002Z,230.90
2019-02-18T23:05:17.758Z,244.63
2019-02-18T23:07:47.225Z,238.73
2019-02-18T23:10:16.507Z,227.53
2019-02-18T23:12:45.910Z,238.77
2019-02-18T23:15:15.262Z,233.83
2019-02-18T23:17:44.750Z,226.17
2019-02-18T23:20:14.584Z,228.50
2019-02-18T23:22:44.037Z,232.37
2019-02-18T23:25:13.486Z,241.00
2019-02-18T23:27:43.062Z,222.80
2019-02-18T23:30:12.908Z,215.03
2019-02-18T23:32:42.337Z,220.80
2019-02-18T23:35:12.161Z,212.30
2019-02-18T23:37:41.623Z,213.87
2019-02-18T23:40:11.067Z,206.27
2019-02-18T23:42:40.439Z,200.20
2019-02-18T23:45:09.907Z,207.90
2019-02-18T23:47:39.229Z,195.23
2019-02-18T23:50:08.695Z,203.93
2019-02-18T23:52:38.216Z,185.97
2019-02-18T23:55:07.705Z,192.77
2019-02-18T23:57:37.145Z,186.00
